Time;durP1;ratioP1;P1;durP2;ratioP2;P2;SDS_P1;SDS_P2;PMS_P1;PMS_P2;Temp;Humidity;BMP_temperature;BMP_pressure;BME280_temperature;BME280_humidity;BME280_pressure;Samples;Min_cycle;Max_cycle;Signal;HPM_P1;HPM_P2
2023/02/27 00:02:04;;;;;;;4.50;2.83;;;;;;;-0.31;62.04;101404.41;5065631;28;20409;-76
2023/02/27 00:04:31;;;;;;;5.97;3.30;;;;;;;-0.31;61.96;101409.91;5064612;28;20063;-77
2023/02/27 00:06:58;;;;;;;5.00;3.25;;;;;;;-0.28;62.21;101398.50;5072496;28;20056;-76
2023/02/27 00:09:25;;;;;;;5.82;3.30;;;;;;;-0.26;61.75;101404.59;5069691;28;20056;-76
2023/02/27 00:11:53;;;;;;;4.45;3.10;;;;;;;-0.27;62.67;101409.22;5063587;28;20064;-76
2023/02/27 00:14:20;;;;;;;5.03;3.30;;;;;;;-0.26;62.05;101399.94;5062153;28;20488;-75
2023/02/27 00:16:49;;;;;;;5.85;3.40;;;;;;;-0.34;62.34;101404.84;5085997;28;20493;-76
2023/02/27 00:19:16;;;;;;;5.97;3.38;;;;;;;-0.30;61.84;101400.59;5056887;28;20060;-77
2023/02/27 00:21:44;;;;;;;5.68;3.50;;;;;;;-0.35;62.57;101397.69;5061058;28;20048;-77
2023/02/27 00:24:11;;;;;;;6.63;3.47;;;;;;;-0.38;62.71;101404.44;5072101;28;20052;-77
2023/02/27 00:26:39;;;;;;;4.85;3.30;;;;;;;-0.42;62.50;101395.84;5071969;28;20053;-76
2023/02/27 00:29:10;;;;;;;5.30;3.38;;;;;;;-0.41;62.89;101400.25;5070214;28;20053;-74
2023/02/27 00:31:38;;;;;;;5.40;3.63;;;;;;;-0.41;62.49;101399.41;5071830;28;20064;-76
2023/02/27 00:34:06;;;;;;;4.47;3.20;;;;;;;-0.40;62.21;101401.06;5073355;28;20500;-76
2023/02/27 00:36:34;;;;;;;6.93;2.75;;;;;;;-0.41;61.91;101400.25;5079223;28;20050;-76
2023/02/27 00:39:01;;;;;;;4.32;3.03;;;;;;;-0.44;61.75;101406.16;5068617;28;20053;-76
2023/02/27 00:41:28;;;;;;;5.20;3.15;;;;;;;-0.46;61.81;101401.97;5071646;28;20409;-76
2023/02/27 00:43:55;;;;;;;5.45;2.95;;;;;;;-0.49;62.71;101403.22;5063723;28;20052;-76
2023/02/27 00:46:23;;;;;;;4.05;3.10;;;;;;;-0.54;62.31;101396.75;5074728;28;20489;-76
2023/02/27 00:48:50;;;;;;;4.50;3.20;;;;;;;-0.57;62.30;101403.47;5075567;28;20056;-76
2023/02/27 00:51:20;;;;;;;4.22;2.92;;;;;;;-0.60;63.08;101401.19;5072005;28;20064;-76
2023/02/27 00:53:48;;;;;;;5.28;3.38;;;;;;;-0.64;62.99;101398.03;5055708;28;20053;-76
2023/02/27 00:56:15;;;;;;;4.35;3.08;;;;;;;-0.61;62.20;101396.75;5056067;28;20061;-76
2023/02/27 00:58:42;;;;;;;6.50;2.97;;;;;;;-0.62;62.55;101398.66;5055337;28;20060;-77
2023/02/27 01:01:09;;;;;;;5.38;3.40;;;;;;;-0.61;63.28;101399.50;5071218;28;20061;-76
2023/02/27 01:03:36;;;;;;;5.72;4.28;;;;;;;-0.60;63.61;101397.63;5075678;28;20063;-76
2023/02/27 01:06:04;;;;;;;5.25;3.40;;;;;;;-0.58;62.95;101403.72;5056491;28;20053;-76
2023/02/27 01:08:33;;;;;;;5.47;3.70;;;;;;;-0.59;63.25;101396.53;5055317;28;20211;-76
2023/02/27 01:11:00;;;;;;;5.00;3.25;;;;;;;-0.65;63.45;101398.25;5055786;28;20071;-77
2023/02/27 01:13:27;;;;;;;5.40;3.47;;;;;;;-0.74;63.36;101402.28;5055246;28;20060;-77
2023/02/27 01:15:54;;;;;;;6.57;3.45;;;;;;;-0.70;64.10;101404.38;5068076;28;20053;-76
2023/02/27 01:18:22;;;;;;;6.32;3.22;;;;;;;-0.71;63.62;101396.41;5054816;28;20063;-77
2023/02/27 01:20:52;;;;;;;4.88;3.30;;;;;;;-0.69;63.64;101407.97;5055376;28;20509;-76
2023/02/27 01:23:19;;;;;;;6.68;3.03;;;;;;;-0.72;63.96;101398.28;5054986;28;20410;-76
2023/02/27 01:25:48;;;;;;;5.22;3.00;;;;;;;-0.74;63.40;101392.19;5052323;28;20060;-77
2023/02/27 01:28:15;;;;;;;4.10;3.08;;;;;;;-0.73;63.66;101406.72;5040709;28;20053;-76
2023/02/27 01:30:43;;;;;;;5.00;3.05;;;;;;;-0.72;63.14;101402.91;5066104;28;20127;-76
2023/02/27 01:33:10;;;;;;;5.13;3.42;;;;;;;-0.77;63.91;101400.00;5075366;28;20060;-76
2023/02/27 01:35:37;;;;;;;4.82;2.90;;;;;;;-0.76;64.02;101409.88;5069436;28;20119;-76
2023/02/27 01:38:05;;;;;;;3.78;2.88;;;;;;;-0.75;63.54;101400.63;5054471;28;20052;-76
2023/02/27 01:40:36;;;;;;;5.13;3.10;;;;;;;-0.84;63.47;101411.81;5054997;28;20061;-76
2023/02/27 01:43:05;;;;;;;4.60;3.00;;;;;;;-0.88;63.89;101410.56;5055176;28;20053;-77
2023/02/27 01:45:34;;;;;;;6.07;3.15;;;;;;;-0.87;63.50;101412.22;5054909;28;20057;-76
2023/02/27 01:48:15;;;;;;;4.20;2.83;;;;;;;-0.91;64.15;101397.28;5055453;28;20053;-76
2023/02/27 01:50:49;;;;;;;5.72;3.28;;;;;;;-0.99;64.36;101405.72;5054379;28;20057;-76
2023/02/27 01:53:19;;;;;;;5.38;3.10;;;;;;;-0.96;64.18;101404.47;5073835;28;20079;-77
2023/02/27 01:55:49;;;;;;;6.35;2.95;;;;;;;-1.00;63.39;101408.69;5073893;28;20060;-76
2023/02/27 01:58:19;;;;;;;5.40;2.80;;;;;;;-1.14;64.44;101402.41;5074493;28;20079;-76
2023/02/27 02:00:47;;;;;;;4.18;2.55;;;;;;;-1.07;63.97;101405.97;5081994;28;20059;-76
2023/02/27 02:03:21;;;;;;;4.07;2.70;;;;;;;-1.11;64.09;101404.75;5074884;28;20053;-69
2023/02/27 02:05:50;;;;;;;5.85;2.90;;;;;;;-1.10;64.07;101400.94;5074748;28;20063;-70
2023/02/27 02:08:20;;;;;;;7.50;2.88;;;;;;;-1.11;64.03;101400.09;5074634;28;20405;-70
2023/02/27 02:10:50;;;;;;;4.50;3.30;;;;;;;-1.13;63.91;101409.56;5074428;28;20056;-69
2023/02/27 02:13:20;;;;;;;3.67;2.70;;;;;;;-1.19;64.20;101407.69;5074177;28;20061;-70
2023/02/27 02:15:53;;;;;;;4.28;2.50;;;;;;;-1.21;63.68;101401.59;5083631;28;20059;-70
2023/02/27 02:18:29;;;;;;;4.03;3.08;;;;;;;-1.24;64.32;101400.97;5075468;28;20496;-69
2023/02/27 02:21:33;;;;;;;3.55;2.72;;;;;;;-1.26;63.62;101404.94;5060763;28;20444;-70
2023/02/27 02:24:45;;;;;;;4.53;3.10;;;;;;;-1.39;64.26;101402.25;5074510;28;20056;-70
2023/02/27 02:27:27;;;;;;;5.45;3.05;;;;;;;-1.32;64.59;101403.94;5074590;28;20068;-70
2023/02/27 02:30:23;;;;;;;5.28;3.60;;;;;;;-1.30;63.70;101400.97;5076240;28;20068;-70
2023/02/27 02:33:26;;;;;;;4.43;2.90;;;;;;;-1.36;64.31;101402.66;5073856;28;20044;-70
2023/02/27 02:36:35;;;;;;;5.32;3.08;;;;;;;-1.36;64.68;101410.88;5072821;28;20071;-70
2023/02/27 02:39:19;;;;;;;4.82;2.83;;;;;;;-1.37;63.83;101413.81;5073966;28;20079;-70
2023/02/27 02:41:58;;;;;;;3.58;2.70;;;;;;;-1.39;63.82;101404.97;5073875;28;20060;-70
2023/02/27 02:44:34;;;;;;;3.92;3.03;;;;;;;-1.39;64.55;101411.28;5072539;28;20063;-70
2023/02/27 02:47:09;;;;;;;5.40;3.28;;;;;;;-1.43;63.82;101412.75;5073740;28;20059;-70
2023/02/27 02:49:43;;;;;;;5.95;3.30;;;;;;;-1.46;64.40;101421.38;5074025;28;20068;-70
2023/02/27 02:52:20;;;;;;;6.22;3.22;;;;;;;-1.46;64.71;101424.13;5072954;28;20417;-71
2023/02/27 02:54:57;;;;;;;4.25;3.30;;;;;;;-1.47;64.68;101422.41;5086790;28;20397;-70
2023/02/27 02:57:31;;;;;;;5.72;3.58;;;;;;;-1.52;64.25;101419.50;5073405;28;20072;-70
2023/02/27 03:00:05;;;;;;;4.55;3.40;;;;;;;-1.56;63.92;101420.97;5075393;28;20048;-70
2023/02/27 03:02:37;;;;;;;5.40;3.20;;;;;;;-1.60;64.21;101422.44;5092570;28;20056;-70
2023/02/27 03:05:08;;;;;;;6.30;3.58;;;;;;;-1.61;64.05;101418.88;5072814;28;20056;-70
2023/02/27 03:07:40;;;;;;;5.07;3.20;;;;;;;-1.59;64.37;101413.22;5072232;28;20048;-70
2023/02/27 03:10:13;;;;;;;5.20;3.22;;;;;;;-1.63;64.74;101413.59;5073653;28;20430;-69
2023/02/27 03:12:44;;;;;;;6.63;3.00;;;;;;;-1.62;64.30;101408.97;5073349;28;20057;-70
2023/02/27 03:15:16;;;;;;;4.53;2.72;;;;;;;-1.65;65.11;101412.97;5076471;28;20521;-69
2023/02/27 03:17:48;;;;;;;3.75;2.75;;;;;;;-1.70;64.68;101412.78;5078581;28;20061;-69
2023/02/27 03:20:22;;;;;;;6.03;3.33;;;;;;;-1.72;64.23;101409.41;5073380;28;20053;-70
2023/02/27 03:22:54;;;;;;;4.90;2.97;;;;;;;-1.71;65.09;101404.78;5071841;28;20059;-69
2023/02/27 03:25:25;;;;;;;5.03;3.22;;;;;;;-1.74;64.26;101405.19;5072006;28;20053;-70
2023/02/27 03:27:56;;;;;;;4.20;2.70;;;;;;;-1.76;65.26;101405.44;5072777;28;20508;-71
2023/02/27 03:30:29;;;;;;;6.45;3.85;;;;;;;-1.73;64.77;101413.19;5070519;28;20064;-70
2023/02/27 03:33:05;;;;;;;8.50;5.78;;;;;;;-1.77;65.29;101409.19;5072637;28;20063;-70
2023/02/27 03:35:42;;;;;;;7.57;4.25;;;;;;;-1.74;64.33;101416.13;5072492;28;20056;-70
2023/02/27 03:38:17;;;;;;;6.85;4.40;;;;;;;-1.76;65.03;101410.88;5073108;28;20059;-70
2023/02/27 03:40:54;;;;;;;5.80;3.85;;;;;;;-1.82;64.78;101414.47;5072757;28;20056;-69
2023/02/27 03:43:29;;;;;;;6.05;4.22;;;;;;;-1.84;65.41;101408.38;5072215;28;20139;-70
2023/02/27 03:46:01;;;;;;;6.03;3.90;;;;;;;-1.89;64.65;101424.50;5071059;28;20439;-69
2023/02/27 03:48:29;;;;;;;5.97;3.72;;;;;;;-1.89;64.46;101424.50;5072979;28;20056;-70
2023/02/27 03:50:56;;;;;;;6.75;3.80;;;;;;;-1.91;65.05;101424.75;5072545;28;20056;-70
2023/02/27 03:53:33;;;;;;;6.60;3.75;;;;;;;-1.91;64.39;101418.41;5053143;28;20052;-70
2023/02/27 03:56:06;;;;;;;7.63;4.53;;;;;;;-1.90;64.77;101429.13;5047488;28;20057;-77
2023/02/27 03:58:33;;;;;;;7.10;4.68;;;;;;;-1.93;65.32;101424.13;5047727;28;20053;-76
2023/02/27 04:01:01;;;;;;;7.55;3.97;;;;;;;-1.92;64.62;101425.78;5058867;28;20061;-76
2023/02/27 04:03:29;;;;;;;6.10;3.72;;;;;;;-1.96;64.29;101424.50;5060969;28;20059;-76
2023/02/27 04:07:21;;;;;;;4.88;3.45;;;;;;;-1.98;64.87;101420.31;5058819;28;20060;-76
2023/02/27 04:08:54;;;;;;;9.68;4.00;;;;;;;-2.09;64.63;101419.88;5050318;28;20521;-77
2023/02/27 04:11:35;;;;;;;5.15;3.40;;;;;;;-2.06;65.21;101430.41;5052087;28;20429;-75
2023/02/27 04:14:34;;;;;;;8.23;4.35;;;;;;;-2.03;64.78;101431.88;5051148;28;20053;-77
2023/02/27 04:17:16;;;;;;;5.72;3.63;;;;;;;-2.01;65.00;101442.59;5050107;28;20080;-75
2023/02/27 04:19:58;;;;;;;3.50;3.00;;;;;;;-2.02;64.85;101444.44;5054651;28;20065;-76
2023/02/27 04:22:33;;;;;;;5.32;3.45;;;;;;;-2.00;65.12;101446.97;5055925;28;20527;-76
2023/02/27 04:25:21;;;;;;;5.97;3.80;;;;;;;-2.05;65.15;101442.97;5056517;28;20057;-77
2023/02/27 04:27:57;;;;;;;8.27;3.72;;;;;;;-2.06;66.00;101445.91;5056526;28;20064;-77
2023/02/27 04:30:29;;;;;;;6.93;3.97;;;;;;;-2.06;65.07;101451.38;5053118;28;20061;-70
2023/02/27 04:33:07;;;;;;;6.97;3.95;;;;;;;-2.05;65.77;101448.44;5055202;28;20080;-69
2023/02/27 04:35:40;;;;;;;5.80;4.22;;;;;;;-2.05;64.80;101456.63;5055587;28;20067;-69
2023/02/27 04:38:16;;;;;;;5.97;4.30;;;;;;;-2.08;64.99;101457.06;5056277;28;20053;-76
2023/02/27 04:40:48;;;;;;;7.93;4.95;;;;;;;-2.09;66.03;101458.09;5056276;28;20068;-76
2023/02/27 04:43:19;;;;;;;5.93;3.78;;;;;;;-2.09;65.21;101460.81;5050053;28;20060;-76
2023/02/27 04:45:49;;;;;;;6.88;4.60;;;;;;;-2.07;65.97;101453.25;5069388;28;20057;-75
2023/02/27 04:48:22;;;;;;;9.38;5.30;;;;;;;-2.15;65.85;101456.19;5049330;28;20064;-75
2023/02/27 04:50:54;;;;;;;7.50;4.78;;;;;;;-2.13;65.99;101454.09;5056524;28;20083;-76
2023/02/27 04:53:26;;;;;;;6.70;4.30;;;;;;;-2.08;66.51;101462.50;5077517;28;20051;-75
2023/02/27 04:55:58;;;;;;;6.20;3.88;;;;;;;-2.06;66.22;101462.28;5075930;28;20515;-76
2023/02/27 04:58:32;;;;;;;5.55;4.05;;;;;;;-2.09;65.05;101462.72;5072783;28;20053;-76
2023/02/27 05:01:03;;;;;;;4.93;3.65;;;;;;;-2.15;65.97;101464.38;5066026;28;20045;-75
2023/02/27 05:03:34;;;;;;;8.05;4.68;;;;;;;-2.19;65.90;101468.56;5074687;28;20056;-76
2023/02/27 05:06:02;;;;;;;6.40;4.03;;;;;;;-2.16;66.04;101478.22;5073819;28;20057;-76
2023/02/27 05:08:35;;;;;;;5.70;4.13;;;;;;;-2.17;65.77;101471.91;5076600;28;20049;-76
2023/02/27 05:11:08;;;;;;;8.82;4.18;;;;;;;-2.15;66.63;101469.81;5082632;28;20401;-76
2023/02/27 05:13:42;;;;;;;6.55;4.07;;;;;;;-2.15;66.31;101471.72;5090114;28;20063;-76
2023/02/27 05:16:17;;;;;;;5.65;3.90;;;;;;;-2.12;66.11;101474.03;5083660;28;20104;-76
2023/02/27 05:18:45;;;;;;;7.13;4.65;;;;;;;-2.11;66.58;101473.81;5074987;28;20052;-76
2023/02/27 05:21:24;;;;;;;8.35;4.80;;;;;;;-2.14;66.94;101482.44;5075318;28;20067;-75
2023/02/27 05:24:01;;;;;;;6.38;4.45;;;;;;;-2.16;65.62;101479.06;5075540;28;20063;-77
2023/02/27 05:26:46;;;;;;;6.07;4.35;;;;;;;-2.18;66.14;101485.75;5074091;28;20056;-76
2023/02/27 05:29:24;;;;;;;8.43;5.50;;;;;;;-2.21;65.62;101497.94;5079503;28;20059;-76
2023/02/27 05:31:54;;;;;;;13.88;8.88;;;;;;;-2.25;65.49;101491.19;5055664;28;20057;-75
2023/02/27 05:34:25;;;;;;;15.02;8.25;;;;;;;-2.31;66.10;101492.00;5075284;28;20561;-76
2023/02/27 05:36:59;;;;;;;17.70;10.45;;;;;;;-2.35;65.69;101496.19;5075112;28;20500;-77
2023/02/27 05:39:29;;;;;;;15.52;9.13;;;;;;;-2.36;65.40;101494.53;5075167;28;20053;-77
2023/02/27 05:42:00;;;;;;;13.23;7.97;;;;;;;-2.40;65.39;101493.25;5075446;28;20414;-76
2023/02/27 05:44:33;;;;;;;11.40;7.50;;;;;;;-2.42;65.06;101501.63;5081760;28;20063;-77
2023/02/27 05:47:05;;;;;;;15.77;8.27;;;;;;;-2.48;64.82;101495.13;5075663;28;20063;-76
2023/02/27 05:49:36;;;;;;;18.02;9.75;;;;;;;-2.49;65.30;101496.16;5074900;28;20068;-77
2023/02/27 05:52:09;;;;;;;16.13;8.68;;;;;;;-2.50;65.06;101494.47;5074586;28;20057;-76
2023/02/27 05:54:39;;;;;;;10.73;6.32;;;;;;;-2.49;65.29;101489.84;5074274;28;20060;-77
2023/02/27 05:57:12;;;;;;;8.73;5.63;;;;;;;-2.53;65.26;101483.13;5072980;28;20061;-75
2023/02/27 05:59:47;;;;;;;12.48;5.68;;;;;;;-2.57;64.99;101495.47;5062703;28;20775;-76
2023/02/27 06:02:15;;;;;;;10.95;6.53;;;;;;;-2.60;65.52;101504.91;5063098;28;20431;-76
2023/02/27 06:04:42;;;;;;;9.50;6.10;;;;;;;-2.57;65.50;101509.94;5062681;28;20056;-74
2023/02/27 06:07:09;;;;;;;10.50;6.38;;;;;;;-2.50;65.01;101519.03;5061453;28;20052;-75
2023/02/27 06:09:37;;;;;;;12.48;8.40;;;;;;;-2.48;65.15;101519.66;5072235;28;20086;-75
2023/02/27 06:12:04;;;;;;;11.35;7.03;;;;;;;-2.47;65.98;101512.31;5063570;28;20472;-75
2023/02/27 06:14:31;;;;;;;9.70;6.05;;;;;;;-2.52;65.07;101517.53;5072824;28;20053;-76
2023/02/27 06:17:00;;;;;;;7.18;5.00;;;;;;;-2.53;65.28;101516.69;5064590;28;20056;-76
2023/02/27 06:19:27;;;;;;;9.57;5.78;;;;;;;-2.52;65.78;101520.25;5072755;28;20386;-76
2023/02/27 06:21:54;;;;;;;10.75;7.00;;;;;;;-2.52;65.43;101523.84;5072964;28;20409;-76
2023/02/27 06:24:21;;;;;;;11.10;6.90;;;;;;;-2.50;65.72;101524.47;5072982;28;20064;-76
2023/02/27 06:26:49;;;;;;;8.38;6.45;;;;;;;-2.48;64.98;101536.03;5073408;28;20057;-76
2023/02/27 06:29:16;;;;;;;9.15;6.18;;;;;;;-2.49;65.18;101534.34;5074150;28;20052;-76
2023/02/27 06:31:43;;;;;;;7.18;4.70;;;;;;;-2.40;65.03;101542.34;5074396;28;20057;-75
2023/02/27 06:34:12;;;;;;;7.68;4.28;;;;;;;-2.41;65.62;101546.97;5074278;28;20071;-76
2023/02/27 06:36:39;;;;;;;9.75;5.20;;;;;;;-2.43;65.13;101553.69;5073971;28;20057;-75
2023/02/27 06:39:07;;;;;;;6.72;4.30;;;;;;;-2.41;64.45;101546.16;5073317;28;20497;-76
2023/02/27 06:41:34;;;;;;;6.55;4.90;;;;;;;-2.35;64.27;101557.09;5073693;28;20056;-76
2023/02/27 06:44:01;;;;;;;9.75;6.28;;;;;;;-2.35;64.44;101561.69;5073570;28;20052;-76
2023/02/27 06:46:29;;;;;;;5.93;4.00;;;;;;;-2.35;64.03;101551.63;5073798;28;20485;-76
2023/02/27 06:48:56;;;;;;;6.90;4.60;;;;;;;-2.27;64.85;101556.06;5069307;28;20045;-76
2023/02/27 06:51:25;;;;;;;7.88;4.85;;;;;;;-2.20;63.97;101558.84;5073140;28;20412;-76
2023/02/27 06:53:52;;;;;;;6.68;4.70;;;;;;;-2.13;64.81;101568.72;5073424;28;20068;-76
2023/02/27 06:56:19;;;;;;;8.57;5.50;;;;;;;-1.87;63.78;101561.66;5065692;28;20389;-76
2023/02/27 06:58:46;;;;;;;7.05;4.90;;;;;;;-1.32;63.38;101567.06;5073413;28;20057;-76
2023/02/27 07:01:13;;;;;;;7.45;4.32;;;;;;;0.14;62.90;101561.31;5073241;28;20068;-75
2023/02/27 07:03:41;;;;;;;6.95;3.83;;;;;;;1.51;60.39;101555.22;5073323;28;20056;-75
2023/02/27 07:06:08;;;;;;;6.38;3.90;;;;;;;2.64;57.65;101558.41;5072994;28;20060;-75
2023/02/27 07:08:36;;;;;;;8.23;4.90;;;;;;;3.86;54.84;101562.41;5073296;28;20056;-75
2023/02/27 07:11:05;;;;;;;8.35;4.20;;;;;;;4.97;51.93;101558.47;5072974;28;20075;-75
2023/02/27 07:13:32;;;;;;;7.82;4.82;;;;;;;5.82;48.82;101554.50;5072824;28;20063;-76
2023/02/27 07:15:59;;;;;;;7.57;4.30;;;;;;;6.63;46.84;101558.53;5073202;28;20053;-75
2023/02/27 07:18:27;;;;;;;9.02;4.13;;;;;;;7.60;44.32;101566.81;5073153;28;20060;-75
2023/02/27 07:20:55;;;;;;;8.70;4.10;;;;;;;8.42;42.60;101558.88;5073266;28;20382;-76
2023/02/27 07:23:22;;;;;;;6.90;4.80;;;;;;;9.10;39.65;101562.34;5073265;28;20056;-76
2023/02/27 07:25:51;;;;;;;7.20;4.78;;;;;;;10.00;38.41;101559.97;5073039;28;20527;-76
2023/02/27 07:28:18;;;;;;;6.10;4.03;;;;;;;11.07;35.87;101564.13;5073033;28;20064;-76
2023/02/27 07:30:45;;;;;;;5.47;3.50;;;;;;;11.50;35.31;101561.50;5072782;28;20052;-76
2023/02/27 07:33:13;;;;;;;4.32;3.05;;;;;;;11.94;34.83;101568.88;5073144;28;20060;-76
2023/02/27 07:35:40;;;;;;;8.68;3.40;;;;;;;12.49;33.43;101568.47;5073312;28;20056;-75
2023/02/27 07:38:07;;;;;;;5.47;3.75;;;;;;;13.22;32.59;101561.50;5073241;28;20065;-76
2023/02/27 07:40:34;;;;;;;6.20;3.85;;;;;;;13.95;30.92;101557.09;5072490;28;20052;-76
2023/02/27 07:43:03;;;;;;;4.45;3.60;;;;;;;14.37;30.09;101557.09;5073350;28;20413;-76
2023/02/27 07:45:30;;;;;;;6.70;3.25;;;;;;;14.84;30.41;101549.31;5073031;28;20071;-76
2023/02/27 07:47:57;;;;;;;6.05;4.03;;;;;;;15.31;29.60;101549.84;5072894;28;20052;-76
2023/02/27 07:50:24;;;;;;;5.13;3.72;;;;;;;16.34;27.72;101556.28;5072583;28;20056;-76
2023/02/27 07:52:52;;;;;;;5.97;4.38;;;;;;;16.64;27.23;101551.69;5071944;28;20421;-76
2023/02/27 07:55:19;;;;;;;8.57;4.78;;;;;;;16.88;26.65;101558.00;5072662;28;20052;-76
2023/02/27 07:57:47;;;;;;;6.82;4.78;;;;;;;17.62;25.79;101552.13;5073726;28;20052;-76
2023/02/27 08:00:17;;;;;;;6.85;4.63;;;;;;;18.30;25.14;101542.06;5073612;28;20056;-76
2023/02/27 08:02:44;;;;;;;6.00;4.75;;;;;;;18.60;24.54;101552.13;5072746;28;20056;-76
2023/02/27 08:05:11;;;;;;;8.30;4.65;;;;;;;19.14;24.30;101553.41;5072167;28;20048;-76
2023/02/27 08:07:39;;;;;;;6.45;4.80;;;;;;;19.67;23.82;101551.69;5072201;28;20064;-76
2023/02/27 08:10:07;;;;;;;7.88;4.65;;;;;;;20.22;22.91;101550.38;5072441;28;20049;-76
2023/02/27 08:12:34;;;;;;;7.60;5.20;;;;;;;20.38;22.26;101549.63;5072619;28;20056;-77
2023/02/27 08:15:02;;;;;;;6.88;4.82;;;;;;;20.39;21.93;101548.44;5072524;28;20056;-76
2023/02/27 08:17:30;;;;;;;6.18;4.90;;;;;;;20.38;22.08;101555.28;5072466;28;20059;-76
2023/02/27 08:19:57;;;;;;;11.13;6.17;;;;;;;20.84;22.35;101564.44;5071966;28;20496;-76
2023/02/27 08:22:25;;;;;;;6.72;5.47;;;;;;;21.61;21.65;101552.09;5072252;28;20967;-76
2023/02/27 08:24:52;;;;;;;5.43;4.80;;;;;;;22.48;20.65;101553.09;5072114;28;20064;-76
2023/02/27 08:27:19;;;;;;;6.60;4.53;;;;;;;23.27;19.96;101552.00;5072085;28;20063;-77
2023/02/27 08:29:46;;;;;;;7.50;4.75;;;;;;;23.80;19.53;101554.25;5072430;28;20059;-76
2023/02/27 08:32:14;;;;;;;5.35;4.50;;;;;;;23.91;19.47;101547.53;5072417;28;20052;-76
2023/02/27 08:34:42;;;;;;;4.82;4.28;;;;;;;24.39;19.22;101554.81;5072258;28;20072;-76
2023/02/27 08:37:09;;;;;;;4.20;3.80;;;;;;;24.85;18.46;101551.84;5071839;28;20064;-74
2023/02/27 08:39:37;;;;;;;5.43;4.25;;;;;;;25.16;18.21;101559.16;5072133;28;20059;-75
2023/02/27 08:42:05;;;;;;;5.20;4.20;;;;;;;25.39;18.23;101561.91;5063795;28;20056;-75
2023/02/27 08:44:33;;;;;;;5.18;4.10;;;;;;;25.62;18.23;101563.78;5071967;28;20056;-75
2023/02/27 08:47:00;;;;;;;4.68;3.60;;;;;;;26.68;17.27;101562.25;5064046;28;20465;-75
2023/02/27 08:49:27;;;;;;;5.43;4.15;;;;;;;26.91;16.79;101559.13;5072150;28;20060;-75
2023/02/27 08:51:56;;;;;;;5.55;3.20;;;;;;;27.82;16.24;101556.13;5063425;28;20052;-75
2023/02/27 08:54:23;;;;;;;3.63;2.40;;;;;;;28.29;16.22;101562.72;5072048;28;20071;-75
2023/02/27 08:56:50;;;;;;;4.53;2.60;;;;;;;29.06;15.08;101542.09;5072013;28;20497;-75
2023/02/27 08:59:17;;;;;;;5.75;3.10;;;;;;;29.02;15.50;101552.75;5071904;28;20064;-75
2023/02/27 09:01:45;;;;;;;5.38;3.20;;;;;;;29.22;14.42;101553.09;5071895;28;20048;-76
2023/02/27 09:04:12;;;;;;;3.58;2.63;;;;;;;28.58;14.79;101559.88;5072257;28;20056;-76
2023/02/27 09:06:39;;;;;;;4.38;2.67;;;;;;;28.34;15.12;101547.16;5075049;28;20052;-75
2023/02/27 09:09:08;;;;;;;4.75;3.13;;;;;;;28.29;15.10;101554.13;5075237;28;20056;-76
2023/02/27 09:11:35;;;;;;;3.88;2.60;;;;;;;28.87;15.15;101539.69;5067335;28;20071;-75
2023/02/27 09:14:02;;;;;;;4.38;2.72;;;;;;;29.76;14.14;101538.44;5075438;28;20417;-75
2023/02/27 09:16:32;;;;;;;5.97;3.25;;;;;;;29.99;14.65;101542.75;5075574;28;20060;-75
2023/02/27 09:19:03;;;;;;;5.25;3.00;;;;;;;30.56;14.37;101548.00;5075509;28;20060;-74
2023/02/27 09:21:31;;;;;;;3.70;2.75;;;;;;;30.93;13.66;101543.50;5075424;28;20079;-76
2023/02/27 09:23:58;;;;;;;4.45;2.65;;;;;;;30.65;13.83;101544.63;5075478;28;20060;-75
2023/02/27 09:26:27;;;;;;;4.18;2.83;;;;;;;31.05;13.51;101545.81;5075176;28;20071;-76
2023/02/27 09:28:54;;;;;;;4.72;2.80;;;;;;;31.87;13.25;101535.16;5075459;28;20469;-75
2023/02/27 09:31:21;;;;;;;4.40;2.92;;;;;;;31.90;13.23;101537.19;5075257;28;20060;-76
2023/02/27 09:33:48;;;;;;;5.40;3.53;;;;;;;32.64;12.88;101549.94;5074825;28;20071;-76
2023/02/27 09:36:16;;;;;;;5.47;2.75;;;;;;;32.58;12.91;101543.06;5075111;28;20056;-76
2023/02/27 09:38:43;;;;;;;4.25;2.80;;;;;;;33.32;12.26;101540.66;5074529;28;20056;-76
2023/02/27 09:41:32;;;;;;;5.32;2.95;;;;;;;33.84;12.15;101541.97;5074801;28;20405;-75
2023/02/27 09:44:00;;;;;;;4.18;2.50;;;;;;;33.91;11.70;101547.53;5074965;28;20059;-77
2023/02/27 09:46:29;;;;;;;4.67;2.53;;;;;;;33.56;11.80;101538.47;5074759;28;20059;-75
2023/02/27 09:48:58;;;;;;;4.85;2.42;;;;;;;34.50;11.24;101536.13;5074619;28;20056;-75
2023/02/27 09:51:27;;;;;;;5.28;2.72;;;;;;;34.53;11.21;101533.13;5074369;28;20056;-75
2023/02/27 09:53:56;;;;;;;;;;;;;;;34.51;11.01;101532.78;5075246;28;20063;-75
2023/02/27 09:56:26;;;;;;;3.58;2.20;;;;;;;34.78;11.03;101531.66;5074790;28;19920;-75
2023/02/27 09:59:05;;;;;;;4.28;2.20;;;;;;;35.22;10.23;101534.91;5074193;28;20540;-76
2023/02/27 10:01:36;;;;;;;3.80;2.20;;;;;;;35.78;11.02;101536.44;5074498;28;20057;-75
2023/02/27 10:04:27;;;;;;;3.22;2.00;;;;;;;30.92;12.78;101539.00;5074751;28;20057;-75
2023/02/27 10:07:02;;;;;;;3.83;1.95;;;;;;;29.59;14.23;101536.47;5074484;28;20081;-75
2023/02/27 10:09:41;;;;;;;4.18;2.63;;;;;;;30.68;13.58;101530.22;5074652;28;20064;-75
2023/02/27 10:12:35;;;;;;;4.78;2.05;;;;;;;26.15;15.60;101545.56;5066479;28;20056;-75
2023/02/27 10:15:11;;;;;;;4.53;2.35;;;;;;;27.86;14.86;101550.44;5073007;28;20508;-75
2023/02/27 10:17:42;;;;;;;4.50;2.00;;;;;;;30.05;13.82;101546.81;5068367;28;20061;-75
2023/02/27 10:20:17;;;;;;;4.00;2.20;;;;;;;29.11;13.63;101547.41;5071998;28;20053;-74
2023/02/27 10:22:49;;;;;;;4.88;2.58;;;;;;;28.58;14.11;101538.94;5070044;28;20063;-75
2023/02/27 10:25:18;;;;;;;3.65;2.03;;;;;;;27.03;15.30;101555.09;5074023;28;20056;-75
2023/02/27 10:27:46;;;;;;;;;;;;;;;29.34;13.98;101552.63;5074599;28;20417;-75
2023/02/27 10:30:22;;;;;;;2.87;1.67;;;;;;;31.64;12.61;101547.47;5073901;28;19920;-75
2023/02/27 10:32:52;;;;;;;3.45;1.48;;;;;;;31.58;13.38;101552.09;5074441;28;20061;-75
2023/02/27 10:35:28;;;;;;;4.18;1.60;;;;;;;31.75;11.83;101561.72;5073649;28;20114;-75
2023/02/27 10:38:00;;;;;;;3.08;1.65;;;;;;;32.33;11.76;101553.75;5073857;28;20071;-75
2023/02/27 10:40:29;;;;;;;2.53;1.40;;;;;;;31.31;12.48;101557.78;5073457;28;20063;-75
2023/02/27 10:43:00;;;;;;;4.97;2.53;;;;;;;27.32;14.64;101562.59;5073407;28;20083;-75
2023/02/27 10:45:29;;;;;;;3.55;1.98;;;;;;;29.57;14.04;101553.31;5073644;28;20060;-75
2023/02/27 10:47:57;;;;;;;5.47;2.28;;;;;;;29.57;13.76;101557.00;5073776;28;20057;-75
2023/02/27 10:50:27;;;;;;;4.20;1.92;;;;;;;31.61;12.81;101550.44;5073576;28;20052;-75
2023/02/27 10:53:01;;;;;;;4.32;1.45;;;;;;;32.78;11.94;101545.94;5073088;28;20064;-76
2023/02/27 10:55:31;;;;;;;3.40;1.65;;;;;;;35.05;10.70;101542.84;5073700;28;20063;-75
2023/02/27 10:58:01;;;;;;;4.20;1.48;;;;;;;30.20;12.66;101551.22;5073233;28;20489;-76
2023/02/27 11:00:38;;;;;;;3.40;1.67;;;;;;;30.95;12.85;101543.88;5073232;28;20067;-75
2023/02/27 11:03:05;;;;;;;3.92;1.60;;;;;;;34.44;11.49;101526.38;5073655;28;20056;-75
2023/02/27 11:05:35;;;;;;;2.67;1.40;;;;;;;36.95;9.70;101524.84;5073374;28;20056;-75
2023/02/27 11:08:20;;;;;;;3.00;1.50;;;;;;;34.63;9.82;101528.34;5073380;28;20060;-76
2023/02/27 11:11:01;;;;;;;3.55;1.58;;;;;;;35.79;9.98;101523.59;5073612;28;20056;-75
2023/02/27 11:13:31;;;;;;;4.13;1.40;;;;;;;32.21;11.49;101536.28;5073299;28;20059;-76
2023/02/27 11:16:07;;;;;;;2.78;1.38;;;;;;;30.45;12.50;101522.25;5073783;28;20067;-75
2023/02/27 11:18:36;;;;;;;3.67;1.40;;;;;;;27.62;14.44;101527.09;5073379;28;20064;-74
2023/02/27 11:21:14;;;;;;;;;;;;;;;27.91;14.67;101522.22;5072396;28;20496;-75
2023/02/27 11:23:54;;;;;;;3.25;1.40;;;;;;;26.18;15.46;101519.84;5073453;28;19920;-75
2023/02/27 11:26:29;;;;;;;1.90;1.00;;;;;;;26.65;14.60;101517.34;5053460;28;20061;-75
2023/02/27 11:29:15;;;;;;;2.88;1.50;;;;;;;28.44;14.28;101516.88;5072132;28;20061;-75
2023/02/27 11:31:51;;;;;;;3.00;1.70;;;;;;;32.75;11.75;101502.28;5064999;28;20064;-75
2023/02/27 11:34:23;;;;;;;2.42;1.20;;;;;;;34.59;10.61;101504.47;5071616;28;20068;-76
2023/02/27 11:36:54;;;;;;;3.80;1.48;;;;;;;35.34;10.84;101501.41;5064906;28;20477;-76
2023/02/27 11:39:27;;;;;;;4.15;1.90;;;;;;;36.82;9.43;101497.19;5072987;28;20056;-76
2023/02/27 11:42:05;;;;;;;3.35;1.80;;;;;;;37.32;9.52;101495.22;5073588;28;20048;-76
2023/02/27 11:44:33;;;;;;;3.83;2.08;;;;;;;38.83;8.72;101494.50;5073626;28;20490;-76
2023/02/27 11:47:23;;;;;;;3.15;1.73;;;;;;;39.97;8.27;101499.78;5073153;28;20060;-76